createdAt,value
2016-03-25T00:00:43.028Z,1006.44
2016-03-25T00:01:43.047Z,1006.47
2016-03-25T00:02:43.050Z,1006.47
2016-03-25T00:03:43.052Z,1006.43
2016-03-25T00:04:43.054Z,1006.43
2016-03-25T00:05:43.072Z,1006.39
2016-03-25T00:06:43.068Z,1006.4
2016-03-25T00:07:43.070Z,1006.42
2016-03-25T00:08:43.087Z,1006.45
2016-03-25T00:09:43.090Z,1006.42
2016-03-25T00:10:43.093Z,1006.41
2016-03-25T00:11:43.159Z,1006.47
2016-03-25T00:12:43.114Z,1006.43
2016-03-25T00:13:43.117Z,1006.44
2016-03-25T00:14:43.120Z,1006.43
2016-03-25T00:15:43.122Z,1006.44
2016-03-25T00:16:43.141Z,1006.41
2016-03-25T00:17:43.144Z,1006.39
2016-03-25T00:18:43.146Z,1006.36
2016-03-25T00:19:43.149Z,1006.44
2016-03-25T00:20:43.183Z,1006.39
2016-03-25T00:21:43.169Z,1006.4
2016-03-25T00:22:43.172Z,1006.37
2016-03-25T00:23:43.175Z,1006.37
2016-03-25T00:24:43.193Z,1006.39
2016-03-25T00:25:43.196Z,1006.35
2016-03-25T00:26:43.246Z,1006.35
2016-03-25T00:27:43.201Z,1006.35
2016-03-25T00:28:43.220Z,1006.34
2016-03-25T00:29:43.207Z,1006.32
2016-03-25T00:30:43.224Z,1006.3
2016-03-25T00:31:43.227Z,1006.28
2016-03-25T00:32:43.230Z,1006.24
2016-03-25T00:33:43.233Z,1006.29
2016-03-25T00:34:43.252Z,1006.25
2016-03-25T00:35:43.254Z,1006.26
2016-03-25T00:36:43.257Z,1006.24
2016-03-25T00:37:43.259Z,1006.25
2016-03-25T00:38:43.278Z,1006.23
2016-03-25T00:39:43.281Z,1006.2
2016-03-25T00:40:43.283Z,1006.23
2016-03-25T00:41:43.286Z,1006.26
2016-03-25T00:42:43.304Z,1006.23
2016-03-25T00:43:43.306Z,1006.21
2016-03-25T00:44:43.310Z,1006.21
2016-03-25T00:45:43.312Z,1006.22
2016-03-25T00:46:43.314Z,1006.19
2016-03-25T00:47:43.334Z,1006.18
2016-03-25T00:48:43.336Z,1006.18
2016-03-25T00:49:43.354Z,1006.17
2016-03-25T00:50:43.342Z,1006.16
2016-03-25T00:51:43.360Z,1006.19
2016-03-25T00:52:43.363Z,1006.16
2016-03-25T00:53:43.366Z,1006.18
2016-03-25T00:54:43.368Z,1006.19
2016-03-25T00:55:43.371Z,1006.14
2016-03-25T00:56:43.388Z,1006.11
2016-03-25T00:57:43.391Z,1006.13
2016-03-25T00:58:43.393Z,1006.16
2016-03-25T00:59:43.397Z,1006.16
2016-03-25T01:00:43.415Z,1006.13
2016-03-25T01:01:43.418Z,1006.2
2016-03-25T01:02:43.421Z,1006.12
2016-03-25T01:03:43.424Z,1006.11
2016-03-25T01:04:43.426Z,1006.14
2016-03-25T01:05:43.444Z,1006.09
2016-03-25T01:06:43.447Z,1006.05
2016-03-25T01:07:43.465Z,1006.07
2016-03-25T01:08:43.452Z,1006.05
2016-03-25T01:09:43.471Z,1006.08
2016-03-25T01:10:43.473Z,1006.01
2016-03-25T01:11:43.476Z,1006.06
2016-03-25T01:12:43.478Z,1006.09
2016-03-25T01:13:43.481Z,1006.02
2016-03-25T01:14:43.500Z,1006.06
2016-03-25T01:15:43.518Z,1006.07
2016-03-25T01:16:43.506Z,1006.09
2016-03-25T01:17:43.508Z,1006.08
2016-03-25T01:18:43.526Z,1006.06
2016-03-25T01:19:43.529Z,1006.05
2016-03-25T01:20:43.531Z,1006.06
2016-03-25T01:21:43.534Z,1006.08
2016-03-25T01:22:43.552Z,1006.04
2016-03-25T01:23:43.555Z,1006.02
2016-03-25T01:24:43.558Z,1006.07
2016-03-25T01:25:43.561Z,1006.04
2016-03-25T01:26:43.579Z,1006.05
2016-03-25T01:27:43.582Z,1006.02
2016-03-25T01:28:43.584Z,1006.02
2016-03-25T01:29:43.588Z,1006.02
2016-03-25T01:30:43.590Z,1006.05
2016-03-25T01:31:43.608Z,1005.99
2016-03-25T01:32:43.610Z,1005.98
2016-03-25T01:33:43.613Z,1005.99
2016-03-25T01:34:43.616Z,1005.97
2016-03-25T01:35:43.619Z,1005.95
2016-03-25T01:36:43.637Z,1005.96
2016-03-25T01:37:43.640Z,1005.92
2016-03-25T01:38:43.642Z,1005.94
2016-03-25T01:39:43.645Z,1005.96
2016-03-25T01:40:43.663Z,1005.92
2016-03-25T01:41:43.666Z,1005.9
2016-03-25T01:42:43.668Z,1005.94
2016-03-25T01:43:43.671Z,1005.9
2016-03-25T01:44:43.674Z,1005.92
2016-03-25T01:45:43.692Z,1005.93
2016-03-25T01:46:43.695Z,1005.84
2016-03-25T01:47:43.698Z,1005.86
2016-03-25T01:48:43.700Z,1005.84
2016-03-25T01:49:43.703Z,1005.78
2016-03-25T01:50:43.722Z,1005.8
2016-03-25T01:51:43.724Z,1005.8
2016-03-25T01:52:43.727Z,1005.78
2016-03-25T01:53:43.730Z,1005.76
2016-03-25T01:54:43.747Z,1005.78
2016-03-25T01:55:43.750Z,1005.8
2016-03-25T01:56:50.316Z,1005.75
2016-03-25T01:57:43.756Z,1005.8
2016-03-25T01:58:43.758Z,1005.72
2016-03-25T01:59:43.777Z,1005.77
2016-03-25T02:00:43.780Z,1005.79
2016-03-25T02:01:43.783Z,1005.71
2016-03-25T02:02:43.801Z,1005.73
2016-03-25T02:03:43.787Z,1005.72
2016-03-25T02:04:43.806Z,1005.69
2016-03-25T02:05:43.809Z,1005.68
2016-03-25T02:06:43.812Z,1005.75
2016-03-25T02:07:43.814Z,1005.7
2016-03-25T02:08:43.832Z,1005.64
2016-03-25T02:09:43.835Z,1005.7
2016-03-25T02:10:43.837Z,1005.7
2016-03-25T02:11:43.840Z,1005.64
2016-03-25T02:12:43.843Z,1005.7
2016-03-25T02:13:43.845Z,1005.7
2016-03-25T02:14:43.865Z,1005.7
2016-03-25T02:15:43.867Z,1005.7
2016-03-25T02:16:43.884Z,1005.7
2016-03-25T02:17:43.873Z,1005.67
2016-03-25T02:18:43.890Z,1005.61
2016-03-25T02:19:43.892Z,1005.62
2016-03-25T02:20:43.896Z,1005.61
2016-03-25T02:21:43.898Z,1005.65
2016-03-25T02:22:43.901Z,1005.66
2016-03-25T02:23:43.919Z,1005.63
2016-03-25T02:24:43.922Z,1005.69
2016-03-25T02:25:43.925Z,1005.64
2016-03-25T02:26:43.943Z,1005.67
2016-03-25T02:27:43.946Z,1005.61
2016-03-25T02:28:43.948Z,1005.67
2016-03-25T02:29:43.951Z,1005.61
2016-03-25T02:30:43.955Z,1005.59
2016-03-25T02:31:43.957Z,1005.62
2016-03-25T02:32:43.974Z,1005.57
2016-03-25T02:33:43.978Z,1005.55
2016-03-25T02:34:43.980Z,1005.55
2016-03-25T02:35:43.982Z,1005.51
2016-03-25T02:36:43.985Z,1005.55
2016-03-25T02:37:44.004Z,1005.48
2016-03-25T02:38:44.007Z,1005.5
2016-03-25T02:39:44.010Z,1005.52
2016-03-25T02:40:44.028Z,1005.45
2016-03-25T02:41:44.015Z,1005.42
2016-03-25T02:42:44.034Z,1005.43
2016-03-25T02:43:44.036Z,1005.44
2016-03-25T02:44:44.038Z,1005.48
2016-03-25T02:45:44.041Z,1005.45
2016-03-25T02:46:44.067Z,1005.45
2016-03-25T02:47:44.039Z,1005.38
2016-03-25T02:48:44.027Z,1005.43
2016-03-25T02:49:44.045Z,1005.41
2016-03-25T02:50:44.002Z,1005.42
2016-03-25T02:51:44.011Z,1005.39
2016-03-25T02:52:44.008Z,1005.36
2016-03-25T02:53:44.006Z,1005.49
2016-03-25T02:54:44.003Z,1005.4
2016-03-25T02:55:44.003Z,1005.43
2016-03-25T02:56:44.016Z,1005.45
2016-03-25T02:57:44.014Z,1005.4
2016-03-25T02:58:44.015Z,1005.4
2016-03-25T02:59:44.016Z,1005.37
2016-03-25T03:00:44.033Z,1005.39
2016-03-25T03:01:44.033Z,1005.36
2016-03-25T03:02:44.035Z,1005.35
2016-03-25T03:03:44.037Z,1005.36
2016-03-25T03:04:44.039Z,1005.35
2016-03-25T03:05:44.057Z,1005.29
2016-03-25T03:06:44.058Z,1005.31
2016-03-25T03:07:44.060Z,1005.28
2016-03-25T03:08:44.063Z,1005.28
2016-03-25T03:09:44.065Z,1005.26
2016-03-25T03:10:44.082Z,1005.28
2016-03-25T03:11:44.085Z,1005.25
2016-03-25T03:12:44.087Z,1005.27
2016-03-25T03:13:44.090Z,1005.25
2016-03-25T03:14:44.093Z,1005.25
2016-03-25T03:15:44.158Z,1005.25
2016-03-25T03:16:44.114Z,1005.28
2016-03-25T03:17:44.117Z,1005.23
2016-03-25T03:18:44.119Z,1005.26
2016-03-25T03:19:44.122Z,1005.27
2016-03-25T03:20:44.141Z,1005.26
2016-03-25T03:21:44.144Z,1005.23
2016-03-25T03:22:44.146Z,1005.25
2016-03-25T03:23:44.164Z,1005.28
2016-03-25T03:24:44.152Z,1005.23
2016-03-25T03:25:44.169Z,1005.25
2016-03-25T03:26:44.172Z,1005.3
2016-03-25T03:27:44.175Z,1005.28
2016-03-25T03:28:44.193Z,1005.28
2016-03-25T03:29:44.181Z,1005.31
2016-03-25T03:30:44.200Z,1005.29
2016-03-25T03:31:44.202Z,1005.27
2016-03-25T03:32:44.205Z,1005.32
2016-03-25T03:33:44.208Z,1005.28
2016-03-25T03:34:44.210Z,1005.3
2016-03-25T03:35:44.228Z,1005.21
2016-03-25T03:36:44.231Z,1005.23
2016-03-25T03:37:44.233Z,1005.22
2016-03-25T03:38:44.237Z,1005.19
2016-03-25T03:39:44.255Z,1005.25
2016-03-25T03:40:44.257Z,1005.25
2016-03-25T03:41:44.261Z,1005.24
2016-03-25T03:42:44.263Z,1005.3
2016-03-25T03:43:44.265Z,1005.31
2016-03-25T03:44:44.269Z,1005.29
2016-03-25T03:45:44.287Z,1005.26
2016-03-25T03:46:44.290Z,1005.28
2016-03-25T03:47:44.293Z,1005.27
2016-03-25T03:48:44.295Z,1005.23
2016-03-25T03:49:44.298Z,1005.19
2016-03-25T03:50:44.315Z,1005.24
2016-03-25T03:51:44.318Z,1005.22
2016-03-25T03:52:44.321Z,1005.18
2016-03-25T03:53:44.323Z,1005.2
2016-03-25T03:54:44.327Z,1005.22
2016-03-25T03:55:44.345Z,1005.12
2016-03-25T03:56:44.347Z,1005.11
2016-03-25T03:57:44.398Z,1005.11
2016-03-25T03:58:44.353Z,1005.16
2016-03-25T03:59:44.356Z,1005.15
2016-03-25T04:00:44.374Z,1005.11
2016-03-25T04:01:44.377Z,1005.04
2016-03-25T04:02:44.380Z,1005.06
2016-03-25T04:03:44.382Z,1005.06
2016-03-25T04:04:44.385Z,1005.04
2016-03-25T04:05:44.403Z,1005.01
2016-03-25T04:06:44.406Z,1005.02
2016-03-25T04:07:44.408Z,1005.03
2016-03-25T04:08:44.410Z,1004.95
2016-03-25T04:09:44.414Z,1004.95
2016-03-25T04:10:44.432Z,1004.95
2016-03-25T04:11:44.435Z,1004.99
2016-03-25T04:12:44.438Z,1004.94
2016-03-25T04:13:44.440Z,1004.91
2016-03-25T04:14:44.443Z,1004.9
2016-03-25T04:15:44.461Z,1004.95
2016-03-25T04:16:44.463Z,1004.91
2016-03-25T04:17:44.482Z,1004.91
2016-03-25T04:18:44.469Z,1004.88
2016-03-25T04:19:44.488Z,1004.91
2016-03-25T04:20:44.490Z,1004.91
2016-03-25T04:21:44.493Z,1004.89
2016-03-25T04:22:44.495Z,1004.81
2016-03-25T04:23:44.499Z,1004.89
2016-03-25T04:24:44.501Z,1004.82
2016-03-25T04:25:44.519Z,1004.88
2016-03-25T04:26:44.522Z,1004.83
2016-03-25T04:27:44.525Z,1004.83
2016-03-25T04:28:44.528Z,1004.83
2016-03-25T04:29:44.530Z,1004.82
2016-03-25T04:30:44.548Z,1004.81
2016-03-25T04:31:44.551Z,1004.77
2016-03-25T04:32:44.553Z,1004.83
2016-03-25T04:33:44.556Z,1004.81
2016-03-25T04:34:44.575Z,1004.79
2016-03-25T04:35:44.577Z,1004.78
2016-03-25T04:36:44.581Z,1004.78
2016-03-25T04:37:44.583Z,1004.84
2016-03-25T04:38:44.601Z,1004.79
2016-03-25T04:39:44.605Z,1004.8
2016-03-25T04:40:44.607Z,1004.78
2016-03-25T04:41:44.609Z,1004.81
2016-03-25T04:42:44.612Z,1004.77
2016-03-25T04:43:44.615Z,1004.72
2016-03-25T04:44:44.633Z,1004.68
2016-03-25T04:45:44.636Z,1004.73
2016-03-25T04:46:44.638Z,1004.65
2016-03-25T04:47:44.640Z,1004.75
2016-03-25T04:48:44.644Z,1004.73
2016-03-25T04:49:44.662Z,1004.71
2016-03-25T04:50:44.664Z,1004.71
2016-03-25T04:51:44.668Z,1004.68
2016-03-25T04:52:44.685Z,1004.73
2016-03-25T04:53:44.673Z,1004.71
2016-03-25T04:54:44.691Z,1004.72
2016-03-25T04:55:44.693Z,1004.69
2016-03-25T04:56:44.712Z,1004.67
2016-03-25T04:57:44.698Z,1004.71
2016-03-25T04:58:44.702Z,1004.67
2016-03-25T04:59:44.720Z,1004.62
2016-03-25T05:00:44.723Z,1004.68
2016-03-25T05:01:44.726Z,1004.65
2016-03-25T05:02:44.728Z,1004.68
2016-03-25T05:03:44.731Z,1004.69
2016-03-25T05:04:44.749Z,1004.7
2016-03-25T05:05:44.752Z,1004.7
2016-03-25T05:06:44.754Z,1004.67
2016-03-25T05:07:44.758Z,1004.68
2016-03-25T05:08:44.762Z,1004.66
2016-03-25T05:09:44.780Z,1004.71
2016-03-25T05:10:44.782Z,1004.64
2016-03-25T05:11:44.801Z,1004.69
2016-03-25T05:12:44.787Z,1004.65
2016-03-25T05:13:44.790Z,1004.63
2016-03-25T05:14:44.809Z,1004.61
2016-03-25T05:15:44.811Z,1004.58
2016-03-25T05:16:44.814Z,1004.58
2016-03-25T05:17:44.816Z,1004.64
2016-03-25T05:18:44.819Z,1004.64
2016-03-25T05:19:44.822Z,1004.56
2016-03-25T05:20:44.839Z,1004.66
2016-03-25T05:21:44.842Z,1004.57
2016-03-25T05:22:44.845Z,1004.68
2016-03-25T05:23:44.847Z,1004.6
2016-03-25T05:24:44.866Z,1004.68
2016-03-25T05:25:44.869Z,1004.65
2016-03-25T05:26:44.872Z,1004.62
2016-03-25T05:27:44.874Z,1004.69
2016-03-25T05:28:44.877Z,1004.61
2016-03-25T05:29:44.896Z,1004.53
2016-03-25T05:30:44.899Z,1004.55
2016-03-25T05:31:44.901Z,1004.52
2016-03-25T05:32:44.904Z,1004.56
2016-03-25T05:33:44.907Z,1004.57
2016-03-25T05:34:44.909Z,1004.68
2016-03-25T05:35:44.927Z,1004.67
2016-03-25T05:36:44.929Z,1004.59
2016-03-25T05:37:44.933Z,1004.57
2016-03-25T05:38:44.935Z,1004.54
2016-03-25T05:39:44.954Z,1004.6
2016-03-25T05:40:44.957Z,1004.5
2016-03-25T05:41:44.959Z,1004.54
2016-03-25T05:42:44.962Z,1004.55
2016-03-25T05:43:44.965Z,1004.58
2016-03-25T05:44:44.980Z,1004.59
2016-03-25T05:45:44.983Z,1004.53
2016-03-25T05:46:44.986Z,1004.58
2016-03-25T05:47:44.988Z,1004.61
2016-03-25T05:48:45.006Z,1004.58
2016-03-25T05:49:45.008Z,1004.49
2016-03-25T05:50:45.012Z,1004.45
2016-03-25T05:51:45.014Z,1004.42
2016-03-25T05:52:45.016Z,1004.42
2016-03-25T05:53:45.020Z,1004.46
2016-03-25T05:54:45.038Z,1004.52
2016-03-25T05:55:45.040Z,1004.47
2016-03-25T05:56:45.044Z,1004.53
2016-03-25T05:57:45.051Z,1004.49
2016-03-25T05:58:45.054Z,1004.59
2016-03-25T05:59:45.057Z,1004.55
2016-03-25T06:00:45.074Z,1004.52
2016-03-25T06:01:45.076Z,1004.59
2016-03-25T06:02:45.080Z,1004.51
2016-03-25T06:03:45.082Z,1004.53
2016-03-25T06:04:45.085Z,1004.48
2016-03-25T06:05:45.104Z,1004.56
2016-03-25T06:06:45.106Z,1004.47
2016-03-25T06:07:45.109Z,1004.52
2016-03-25T06:08:45.112Z,1004.48
2016-03-25T06:09:45.114Z,1004.43
2016-03-25T06:10:45.133Z,1004.54
2016-03-25T06:11:45.136Z,1004.45
2016-03-25T06:12:45.138Z,1004.43
2016-03-25T06:13:45.142Z,1004.44
2016-03-25T06:14:45.144Z,1004.42
2016-03-25T06:15:45.146Z,1004.43
2016-03-25T06:16:45.165Z,1004.38
2016-03-25T06:17:45.167Z,1004.43
2016-03-25T06:18:45.169Z,1004.37
2016-03-25T06:19:45.172Z,1004.4
2016-03-25T06:20:45.175Z,1004.43
2016-03-25T06:21:45.194Z,1004.38
2016-03-25T06:22:45.196Z,1004.35
2016-03-25T06:23:45.199Z,1004.39
2016-03-25T06:24:45.202Z,1004.37
2016-03-25T06:25:45.204Z,1004.28
2016-03-25T06:26:45.223Z,1004.35
2016-03-25T06:27:45.226Z,1004.38
2016-03-25T06:28:45.228Z,1004.34
2016-03-25T06:29:45.231Z,1004.3
2016-03-25T06:30:45.234Z,1004.36
2016-03-25T06:31:45.236Z,1004.33
2016-03-25T06:32:45.254Z,1004.27
2016-03-25T06:33:45.257Z,1004.34
2016-03-25T06:34:45.260Z,1004.38
2016-03-25T06:35:45.263Z,1004.22
2016-03-25T06:36:45.265Z,1004.26
2016-03-25T06:37:45.284Z,1004.19
2016-03-25T06:38:45.287Z,1004.21
2016-03-25T06:39:45.289Z,1004.26
2016-03-25T06:40:45.291Z,1004.21
2016-03-25T06:41:45.295Z,1004.22
2016-03-25T06:42:45.312Z,1004.24
2016-03-25T06:43:45.314Z,1004.25
2016-03-25T06:44:45.318Z,1004.23
2016-03-25T06:45:45.320Z,1004.23
2016-03-25T06:46:45.323Z,1004.24
2016-03-25T06:47:45.342Z,1004.23
2016-03-25T06:48:45.344Z,1004.29
2016-03-25T06:49:45.347Z,1004.2
2016-03-25T06:50:45.350Z,1004.26
2016-03-25T06:51:45.352Z,1004.21
2016-03-25T06:52:45.371Z,1004.26
2016-03-25T06:53:45.374Z,1004.21
2016-03-25T06:54:45.376Z,1004.27
2016-03-25T06:55:45.380Z,1004.22
2016-03-25T06:56:45.382Z,1004.24
2016-03-25T06:57:45.399Z,1004.22
2016-03-25T06:58:45.402Z,1004.3
2016-03-25T06:59:45.405Z,1004.27
2016-03-25T07:00:45.407Z,1004.28
2016-03-25T07:01:45.410Z,1004.26
2016-03-25T07:02:45.429Z,1004.28
2016-03-25T07:03:45.432Z,1004.3
2016-03-25T07:04:45.434Z,1004.27
2016-03-25T07:05:45.437Z,1004.25
2016-03-25T07:06:45.439Z,1004.27
2016-03-25T07:07:45.458Z,1004.33
2016-03-25T07:08:45.461Z,1004.24
2016-03-25T07:09:45.464Z,1004.25
2016-03-25T07:10:45.466Z,1004.25
2016-03-25T07:11:45.470Z,1004.2
2016-03-25T07:12:45.487Z,1004.3
2016-03-25T07:13:45.489Z,1004.32
2016-03-25T07:14:45.492Z,1004.32
2016-03-25T07:15:45.495Z,1004.28
2016-03-25T07:16:45.497Z,1004.29
2016-03-25T07:17:45.516Z,1004.22
2016-03-25T07:18:45.519Z,1004.21
2016-03-25T07:19:45.521Z,1004.29
2016-03-25T07:20:45.525Z,1004.23
2016-03-25T07:21:45.527Z,1004.26
2016-03-25T07:22:45.544Z,1004.18
2016-03-25T07:23:45.595Z,1004.25
2016-03-25T07:24:45.550Z,1004.29
2016-03-25T07:25:45.552Z,1004.21
2016-03-25T07:26:45.555Z,1004.23
2016-03-25T07:27:45.574Z,1004.22
2016-03-25T07:28:45.577Z,1004.25
2016-03-25T07:29:45.596Z,1004.27
2016-03-25T07:30:45.583Z,1004.25
2016-03-25T07:31:45.601Z,1004.21
2016-03-25T07:32:45.604Z,1004.31
2016-03-25T07:33:45.606Z,1004.18
2016-03-25T07:34:45.609Z,1004.24
2016-03-25T07:35:45.611Z,1004.19
2016-03-25T07:36:45.615Z,1004.2
2016-03-25T07:37:45.632Z,1004.23
2016-03-25T07:38:45.651Z,1004.23
2016-03-25T07:39:45.638Z,1004.23
2016-03-25T07:40:45.640Z,1004.22
2016-03-25T07:41:45.642Z,1004.25
2016-03-25T07:42:45.662Z,1004.22
2016-03-25T07:43:45.664Z,1004.19
2016-03-25T07:44:45.667Z,1004.2
2016-03-25T07:45:45.686Z,1004.17
2016-03-25T07:46:45.689Z,1004.14
2016-03-25T07:47:45.691Z,1004.2
2016-03-25T07:48:45.694Z,1004.15
2016-03-25T07:49:45.697Z,1004.22
2016-03-25T07:50:45.714Z,1004.22
2016-03-25T07:51:45.717Z,1004.2
2016-03-25T07:52:45.719Z,1004.2
2016-03-25T07:53:45.722Z,1004.2
2016-03-25T07:54:45.756Z,1004.22
2016-03-25T07:55:45.744Z,1004.32
2016-03-25T07:56:45.746Z,1004.2
2016-03-25T07:57:45.748Z,1004.28
2016-03-25T07:58:45.751Z,1004.25
2016-03-25T07:59:45.755Z,1004.18
2016-03-25T08:00:45.772Z,1004.26
2016-03-25T08:01:45.774Z,1004.22
2016-03-25T08:02:45.778Z,1004.24
2016-03-25T08:03:45.780Z,1004.22
2016-03-25T08:04:45.798Z,1004.17
2016-03-25T08:05:45.801Z,1004.23
2016-03-25T08:06:45.804Z,1004.16
2016-03-25T08:07:45.807Z,1004.19
2016-03-25T08:08:45.825Z,1004.21
2016-03-25T08:09:45.828Z,1004.26
2016-03-25T08:10:45.831Z,1004.26
2016-03-25T08:11:45.833Z,1004.25
2016-03-25T08:12:45.851Z,1004.31
2016-03-25T08:13:45.854Z,1004.17
2016-03-25T08:14:45.856Z,1004.19
2016-03-25T08:15:45.859Z,1004.22
2016-03-25T08:16:45.862Z,1004.16
2016-03-25T08:17:45.881Z,1004.22
2016-03-25T08:18:45.883Z,1004.3
2016-03-25T08:19:45.886Z,1004.3
2016-03-25T08:20:45.889Z,1004.29
2016-03-25T08:21:45.907Z,1004.27
2016-03-25T08:22:45.910Z,1004.27
2016-03-25T08:23:45.913Z,1004.21
2016-03-25T08:24:45.915Z,1004.26
2016-03-25T08:25:45.933Z,1004.26
2016-03-25T08:26:45.952Z,1004.2
2016-03-25T08:27:45.938Z,1004.22
2016-03-25T08:28:45.957Z,1004.25
2016-03-25T08:29:45.960Z,1004.21
2016-03-25T08:30:45.962Z,1004.22
2016-03-25T08:31:45.966Z,1004.22
2016-03-25T08:32:45.983Z,1004.23
2016-03-25T08:33:45.986Z,1004.18
2016-03-25T08:34:46.005Z,1004.21
2016-03-25T08:35:45.991Z,1004.26
2016-03-25T08:36:46.010Z,1004.22
2016-03-25T08:37:46.012Z,1004.27
2016-03-25T08:38:46.015Z,1004.22
2016-03-25T08:39:46.017Z,1004.24
2016-03-25T08:40:46.036Z,1004.23
2016-03-25T08:41:46.039Z,1004.25
2016-03-25T08:42:46.042Z,1004.22
2016-03-25T08:43:46.060Z,1004.2
2016-03-25T08:44:46.062Z,1004.22
2016-03-25T08:45:46.065Z,1004.23
2016-03-25T08:46:46.068Z,1004.24
2016-03-25T08:47:46.086Z,1004.24
2016-03-25T08:48:46.089Z,1004.26
2016-03-25T08:49:46.092Z,1004.27
2016-03-25T08:50:46.095Z,1004.23
2016-03-25T08:51:46.098Z,1004.3
2016-03-25T08:52:46.116Z,1004.25
2016-03-25T08:53:46.119Z,1004.29
2016-03-25T08:54:46.121Z,1004.25
2016-03-25T08:55:46.139Z,1004.41
2016-03-25T08:56:46.142Z,1004.25
2016-03-25T08:57:46.144Z,1004.27
2016-03-25T08:58:46.147Z,1004.28
2016-03-25T08:59:46.165Z,1004.29
2016-03-25T09:00:46.168Z,1004.26
2016-03-25T09:01:46.171Z,1004.31
2016-03-25T09:02:46.174Z,1004.38
2016-03-25T09:03:46.177Z,1004.33
2016-03-25T09:04:46.194Z,1004.28
2016-03-25T09:05:46.196Z,1004.29
2016-03-25T09:06:46.215Z,1004.31
2016-03-25T09:07:46.218Z,1004.33
2016-03-25T09:08:46.220Z,1004.35
2016-03-25T09:09:46.223Z,1004.31
2016-03-25T09:10:46.226Z,1004.36
2016-03-25T09:11:46.245Z,1004.36
2016-03-25T09:12:46.247Z,1004.39
2016-03-25T09:13:46.250Z,1004.33
2016-03-25T09:14:46.253Z,1004.39
2016-03-25T09:15:46.271Z,1004.37
2016-03-25T09:16:46.273Z,1004.36
2016-03-25T09:17:46.276Z,1004.37
2016-03-25T09:18:46.295Z,1004.38
2016-03-25T09:19:46.298Z,1004.33
2016-03-25T09:20:46.300Z,1004.36
2016-03-25T09:21:46.303Z,1004.33
2016-03-25T09:22:46.322Z,1004.35
2016-03-25T09:23:46.325Z,1004.38
2016-03-25T09:24:46.327Z,1004.34
2016-03-25T09:25:46.330Z,1004.33
2016-03-25T09:26:46.348Z,1004.34
2016-03-25T09:27:46.350Z,1004.3
2016-03-25T09:28:46.353Z,1004.3
2016-03-25T09:29:46.356Z,1004.4
2016-03-25T09:30:46.374Z,1004.29
2016-03-25T09:31:46.392Z,1004.34
2016-03-25T09:32:46.380Z,1004.33
2016-03-25T09:33:46.397Z,1004.34
2016-03-25T09:34:46.400Z,1004.3
2016-03-25T09:35:46.403Z,1004.34
2016-03-25T09:36:46.405Z,1004.33
2016-03-25T09:37:46.408Z,1004.3
2016-03-25T09:38:46.427Z,1004.35
2016-03-25T09:39:46.429Z,1004.34
2016-03-25T09:40:46.432Z,1004.34
2016-03-25T09:41:46.450Z,1004.35
2016-03-25T09:42:46.454Z,1004.35
2016-03-25T09:43:46.456Z,1004.36
2016-03-25T09:44:46.459Z,1004.41
2016-03-25T09:45:46.477Z,1004.35
2016-03-25T09:46:46.479Z,1004.39
2016-03-25T09:47:46.481Z,1004.35
2016-03-25T09:48:46.484Z,1004.29
2016-03-25T09:49:46.503Z,1004.38
2016-03-25T09:50:46.506Z,1004.35
2016-03-25T09:51:46.508Z,1004.32
2016-03-25T09:52:46.512Z,1004.33
2016-03-25T09:53:46.530Z,1004.36
2016-03-25T09:54:46.532Z,1004.36
2016-03-25T09:55:46.536Z,1004.32
2016-03-25T09:56:46.538Z,1004.35
2016-03-25T09:57:46.556Z,1004.33
2016-03-25T09:58:46.558Z,1004.35
2016-03-25T09:59:46.562Z,1004.37
2016-03-25T10:00:46.580Z,1004.35
2016-03-25T10:01:46.583Z,1004.33
2016-03-25T10:02:46.586Z,1004.38
2016-03-25T10:03:46.588Z,1004.35
2016-03-25T10:04:46.606Z,1004.36
2016-03-25T10:05:46.609Z,1004.38
2016-03-25T10:06:46.611Z,1004.36
2016-03-25T10:07:46.614Z,1004.34
2016-03-25T10:08:46.632Z,1004.39
2016-03-25T10:09:46.635Z,1004.35
2016-03-25T10:10:46.638Z,1004.32
2016-03-25T10:11:46.640Z,1004.34
2016-03-25T10:12:46.659Z,1004.37
2016-03-25T10:13:46.662Z,1004.31
2016-03-25T10:14:46.665Z,1004.31
2016-03-25T10:15:46.682Z,1004.32
2016-03-25T10:16:46.684Z,1004.34
2016-03-25T10:17:46.688Z,1004.37
2016-03-25T10:18:46.706Z,1004.33
2016-03-25T10:19:46.709Z,1004.36
2016-03-25T10:20:46.712Z,1004.28
2016-03-25T10:21:46.715Z,1004.3
2016-03-25T10:22:46.717Z,1004.29
2016-03-25T10:23:46.735Z,1004.33
2016-03-25T10:24:46.739Z,1004.31
2016-03-25T10:25:46.741Z,1004.26
2016-03-25T10:26:46.744Z,1004.27
2016-03-25T10:27:46.761Z,1004.29
2016-03-25T10:28:46.764Z,1004.32
2016-03-25T10:29:46.766Z,1004.34
2016-03-25T10:30:46.769Z,1004.32
2016-03-25T10:31:46.788Z,1004.3
2016-03-25T10:32:46.791Z,1004.36
2016-03-25T10:33:46.793Z,1004.28
2016-03-25T10:34:46.796Z,1004.36
2016-03-25T10:35:46.814Z,1004.29
2016-03-25T10:36:46.816Z,1004.37
2016-03-25T10:37:46.819Z,1004.43
2016-03-25T10:38:46.838Z,1004.37
2016-03-25T10:39:46.840Z,1004.32
2016-03-25T10:40:46.843Z,1004.32
2016-03-25T10:41:46.846Z,1004.37
2016-03-25T10:42:46.864Z,1004.37
2016-03-25T10:43:46.867Z,1004.33
2016-03-25T10:44:46.885Z,1004.36
2016-03-25T10:45:46.887Z,1004.39
2016-03-25T10:46:46.890Z,1004.35
2016-03-25T10:47:46.893Z,1004.32
2016-03-25T10:48:46.896Z,1004.31
2016-03-25T10:49:46.914Z,1004.32
2016-03-25T10:50:46.917Z,1004.27
2016-03-25T10:51:46.920Z,1004.29
2016-03-25T10:52:46.922Z,1004.27
2016-03-25T10:53:46.925Z,1004.33
2016-03-25T10:54:46.944Z,1004.32
2016-03-25T10:55:46.946Z,1004.29
2016-03-25T10:56:46.949Z,1004.4
2016-03-25T10:57:46.967Z,1004.35
2016-03-25T10:58:46.969Z,1004.32
2016-03-25T10:59:46.972Z,1004.35
2016-03-25T11:00:46.991Z,1004.34
2016-03-25T11:01:46.993Z,1004.35
2016-03-25T11:02:46.996Z,1004.36
2016-03-25T11:03:46.999Z,1004.36
2016-03-25T11:04:47.002Z,1004.33
2016-03-25T11:05:47.019Z,1004.28
2016-03-25T11:06:47.022Z,1004.3
2016-03-25T11:07:47.025Z,1004.34
2016-03-25T11:08:47.043Z,1004.38
2016-03-25T11:09:47.046Z,1004.36
2016-03-25T11:10:47.049Z,1004.32
2016-03-25T11:11:47.051Z,1004.33
2016-03-25T11:12:47.070Z,1004.29
2016-03-25T11:13:47.073Z,1004.29
2016-03-25T11:14:47.075Z,1004.32
2016-03-25T11:15:47.093Z,1004.3
2016-03-25T11:16:47.096Z,1004.29
2016-03-25T11:17:47.098Z,1004.28
2016-03-25T11:18:47.117Z,1004.3
2016-03-25T11:19:47.120Z,1004.34
2016-03-25T11:20:47.123Z,1004.27
2016-03-25T11:21:47.125Z,1004.39
2016-03-25T11:22:47.128Z,1004.33
2016-03-25T11:23:47.147Z,1004.3
2016-03-25T11:24:47.150Z,1004.23
2016-03-25T11:25:47.153Z,1004.25
2016-03-25T11:26:47.170Z,1004.24
2016-03-25T11:27:47.173Z,1004.26
2016-03-25T11:28:47.192Z,1004.23
2016-03-25T11:29:47.179Z,1004.18
2016-03-25T11:30:47.197Z,1004.28
2016-03-25T11:31:47.200Z,1004.25
2016-03-25T11:32:47.203Z,1004.37
2016-03-25T11:33:47.205Z,1004.25
2016-03-25T11:34:47.208Z,1004.26
2016-03-25T11:35:47.226Z,1004.23
2016-03-25T11:36:47.244Z,1004.25
2016-03-25T11:37:47.247Z,1004.25
2016-03-25T11:38:47.250Z,1004.23
2016-03-25T11:39:47.253Z,1004.21
2016-03-25T11:40:47.258Z,1004.23
2016-03-25T11:41:47.275Z,1004.32
2016-03-25T11:42:47.275Z,1004.22
2016-03-25T11:43:47.345Z,1004.23
2016-03-25T11:44:47.274Z,1004.27
2016-03-25T11:45:47.277Z,1004.25
2016-03-25T11:46:47.295Z,1004.21
2016-03-25T11:47:47.298Z,1004.25
2016-03-25T11:48:47.300Z,1004.24
2016-03-25T11:49:47.303Z,1004.22
2016-03-25T11:50:47.321Z,1004.3
2016-03-25T11:51:47.323Z,1004.25
2016-03-25T11:52:47.326Z,1004.23
2016-03-25T11:53:47.328Z,1004.27
2016-03-25T11:54:47.350Z,1004.28
2016-03-25T11:55:47.328Z,1004.24
2016-03-25T11:56:47.319Z,1004.27
2016-03-25T11:57:47.310Z,1004.25
2016-03-25T11:58:47.323Z,1004.28
2016-03-25T11:59:47.322Z,1004.32
2016-03-25T12:00:47.320Z,1004.29
2016-03-25T12:01:47.319Z,1004.29
2016-03-25T12:02:47.333Z,1004.27
2016-03-25T12:03:47.334Z,1004.32
2016-03-25T12:04:47.336Z,1004.33
2016-03-25T12:05:47.338Z,1004.32
2016-03-25T12:06:47.354Z,1004.3
2016-03-25T12:07:47.356Z,1004.32